Main page
METAR-TAF:

METAR-TAF

Airports :

Memorial Field Airport

Hot Springs, Arkansas, United States

latitude: 34-28-41N, longitude: 093-05-46W, elevation: 541 ft

Current weather observation

The report was made 32 minutes ago, at 00:53 UTC
Wind 5 mph from the South/Southwest
Temperature 93°F
Humidity 47%
Pressure 29.90 in. Hg
Visibility: 10 miles
Clear sky

METAR: KHOT 250053Z AUTO 20004KT 10SM CLR 34/21 A2990 RMK AO2 SLP115 T03440211

Time: 20:25 (01:25 UTC)

Forecast

The report was made 2 hours and 5 minutes ago, at 23:20 UTC
Forecast valid from 25 at 00 UTC to 25 at 24 UTC
Wind 3 mph from variable directions
Visibility: 6 miles
Few clouds at a height of 6000 ft
From 25 at 1500 UTC
Wind 8 mph from the Southwest
Visibility: 6 miles
Scattered clouds at a height of 5000 ft

TAF: KHOT 242320Z 2500/2524 VRB03KT P6SM FEW060 FM251500 23007KT P6SM SCT050

Weather observations and forecasts of more than 4000 airports (METAR and TAF reports).

The available stations are represented by yellow and red dots on the map.

Hover mouse over dot to see the name of the station.

Then click to see weather observations and forecasts.

To change the map : click on the green buttons with a black cross to zoom in, on the green button with a dash to zoom out, or on the green arrows for adjacent maps.


METAR-TAF: